createdAt,value
2022-10-11T00:00:05.464Z,332.98
2022-10-11T00:05:12.617Z,333.59
2022-10-11T00:10:19.878Z,333.83
2022-10-11T00:15:27.094Z,333.14
2022-10-11T00:20:34.263Z,332.69
2022-10-11T00:25:41.483Z,332.64
2022-10-11T00:30:48.740Z,332.47
2022-10-11T00:35:55.984Z,332.44
2022-10-11T00:41:03.233Z,332.26
2022-10-11T00:46:10.468Z,332.04
2022-10-11T00:51:17.656Z,331.86
2022-10-11T00:56:24.790Z,332.14
2022-10-11T01:01:32.102Z,332.22
2022-10-11T01:06:39.218Z,332.44
2022-10-11T01:11:46.373Z,332.03
2022-10-11T01:16:53.554Z,332.48
2022-10-11T01:22:00.757Z,331.87
2022-10-11T01:27:08.153Z,332.36
2022-10-11T01:32:15.358Z,332.46
2022-10-11T01:37:22.572Z,332.73
2022-10-11T01:42:29.992Z,333.01
2022-10-11T01:47:37.303Z,333.27
2022-10-11T01:52:44.369Z,333.44
2022-10-11T01:57:51.711Z,333.14
2022-10-11T02:02:58.947Z,333.14
2022-10-11T02:08:06.187Z,332.88
2022-10-11T02:13:13.461Z,332.82
2022-10-11T02:18:20.734Z,332.60
2022-10-11T02:23:28.119Z,333.08
2022-10-11T02:28:35.394Z,333.54
2022-10-11T02:33:42.598Z,333.83
2022-10-11T02:38:49.781Z,333.67
2022-10-11T02:43:56.996Z,334.01
2022-10-11T02:49:04.210Z,334.19
2022-10-11T02:54:11.388Z,334.77
2022-10-11T02:59:18.561Z,334.97
2022-10-11T03:04:25.846Z,335.20
2022-10-11T03:09:33.074Z,335.02
2022-10-11T03:14:40.281Z,335.10
2022-10-11T03:19:47.525Z,335.13
2022-10-11T03:24:55.958Z,335.48
2022-10-11T03:30:01.906Z,334.72
2022-10-11T03:35:09.121Z,334.40
2022-10-11T03:40:16.336Z,334.27
2022-10-11T03:45:23.537Z,333.40
2022-10-11T03:50:30.825Z,332.69
2022-10-11T03:55:38.014Z,333.19
2022-10-11T04:00:45.208Z,333.70
2022-10-11T04:05:52.438Z,333.63
2022-10-11T04:10:59.629Z,333.56
2022-10-11T04:16:09.054Z,333.89
2022-10-11T04:21:15.943Z,334.28
2022-10-11T04:26:23.071Z,334.28
2022-10-11T04:31:30.274Z,334.53
2022-10-11T04:36:37.606Z,334.49
2022-10-11T04:41:44.766Z,333.83
2022-10-11T04:46:52.009Z,333.65
2022-10-11T04:51:59.284Z,333.42
2022-10-11T04:57:06.449Z,333.04
2022-10-11T05:02:13.720Z,333.61
2022-10-11T05:07:20.845Z,333.21
2022-10-11T05:12:28.021Z,333.38
2022-10-11T05:17:35.294Z,333.18
2022-10-11T05:22:42.653Z,333.03
2022-10-11T05:27:49.810Z,332.92
2022-10-11T05:32:56.987Z,332.67
2022-10-11T05:38:04.333Z,332.86
2022-10-11T05:43:11.564Z,332.53
2022-10-11T05:48:18.777Z,332.15
2022-10-11T05:53:25.944Z,331.79
2022-10-11T05:58:33.086Z,331.43
2022-10-11T06:03:40.338Z,331.16
2022-10-11T06:08:47.718Z,330.66
2022-10-11T06:13:54.874Z,330.36
2022-10-11T06:19:02.086Z,330.07
2022-10-11T06:24:09.362Z,329.45
2022-10-11T06:29:16.442Z,328.32
2022-10-11T06:34:23.675Z,328.34
2022-10-11T06:39:30.901Z,327.83
2022-10-11T06:44:38.054Z,327.19
2022-10-11T06:49:45.302Z,326.36
2022-10-11T06:54:52.546Z,325.59
2022-10-11T07:00:00.136Z,325.02
2022-10-11T07:05:07.338Z,324.88
2022-10-11T07:10:14.525Z,324.51
2022-10-11T07:15:21.689Z,324.44
2022-10-11T07:20:28.865Z,324.27
2022-10-11T07:25:36.140Z,324.75
2022-10-11T07:30:43.369Z,324.24
2022-10-11T07:35:50.563Z,323.59
2022-10-11T07:40:57.760Z,323.54
2022-10-11T07:46:05.478Z,323.68
2022-10-11T07:51:12.195Z,323.86
2022-10-11T07:56:19.412Z,323.44
2022-10-11T08:01:26.774Z,323.14
2022-10-11T08:06:33.892Z,322.96
2022-10-11T08:11:41.205Z,323.47
2022-10-11T08:16:48.321Z,323.34
2022-10-11T08:21:55.490Z,323.14
2022-10-11T08:27:02.691Z,323.26
2022-10-11T08:32:09.972Z,323.30
2022-10-11T08:37:17.142Z,323.24
2022-10-11T08:42:24.361Z,323.17
2022-10-11T08:47:31.550Z,323.27
2022-10-11T08:52:38.770Z,323.17
2022-10-11T08:57:46.011Z,323.51
2022-10-11T09:03:07.932Z,323.68
2022-10-11T09:08:00.664Z,323.83
2022-10-11T09:13:07.897Z,324.36
2022-10-11T09:18:15.060Z,324.76
2022-10-11T09:23:22.259Z,324.83
2022-10-11T09:28:29.592Z,324.96
2022-10-11T09:33:36.688Z,325.44
2022-10-11T09:38:43.990Z,325.52
2022-10-11T09:43:51.184Z,325.76
2022-10-11T09:48:59.430Z,326.05
2022-10-11T09:54:06.647Z,326.11
2022-10-11T09:59:13.878Z,326.38
2022-10-11T10:04:21.037Z,326.64
2022-10-11T10:09:28.243Z,326.84
2022-10-11T10:14:36.097Z,326.49
2022-10-11T10:19:45.241Z,326.61
2022-10-11T10:24:50.535Z,326.92
2022-10-11T10:29:57.807Z,326.90
2022-10-11T10:35:05.252Z,327.47
2022-10-11T10:40:12.449Z,327.47
2022-10-11T10:45:21.774Z,327.46
2022-10-11T10:50:26.919Z,327.61
2022-10-11T10:55:34.115Z,328.19
2022-10-11T11:00:41.344Z,328.28
2022-10-11T11:05:50.241Z,328.48
2022-10-11T11:10:57.459Z,329.23
2022-10-11T11:16:05.232Z,328.86
2022-10-11T11:21:12.083Z,329.75
2022-10-11T11:26:19.284Z,330.06
2022-10-11T11:31:26.666Z,330.31
2022-10-11T11:36:33.811Z,330.88
2022-10-11T11:41:41.002Z,331.05
2022-10-11T11:46:48.227Z,331.84
2022-10-11T11:51:55.447Z,332.15
2022-10-11T11:57:02.820Z,332.81
2022-10-11T12:02:10.115Z,332.85
2022-10-11T12:07:17.887Z,333.32
2022-10-11T12:12:24.463Z,334.03
2022-10-11T12:17:31.643Z,334.52
2022-10-11T12:22:38.953Z,334.84
2022-10-11T12:27:46.189Z,335.16
2022-10-11T12:32:53.376Z,335.82
2022-10-11T12:38:00.552Z,336.35
2022-10-11T12:43:07.776Z,336.95
2022-10-11T12:48:14.965Z,336.01
2022-10-11T12:53:22.124Z,336.70
2022-10-11T12:58:29.837Z,337.13
2022-10-11T13:03:37.055Z,337.78
2022-10-11T13:08:44.201Z,337.55
2022-10-11T13:13:51.352Z,338.07
2022-10-11T13:18:58.546Z,337.76
2022-10-11T13:24:05.665Z,337.50
2022-10-11T13:29:12.844Z,337.79
2022-10-11T13:34:23.348Z,338.51
2022-10-11T13:39:30.980Z,338.15
2022-10-11T13:44:34.427Z,338.77
2022-10-11T13:49:41.653Z,338.52
2022-10-11T13:54:49.006Z,338.23
2022-10-11T13:59:56.341Z,338.20
2022-10-11T14:05:03.620Z,338.54
2022-10-11T14:10:10.912Z,338.54
2022-10-11T14:15:18.381Z,338.41
2022-10-11T14:20:29.546Z,338.11
2022-10-11T14:25:33.996Z,338.30
2022-10-11T14:30:41.246Z,338.42
2022-10-11T14:35:48.444Z,338.24
2022-10-11T14:40:55.608Z,338.22
2022-10-11T14:46:03.112Z,337.92
2022-10-11T14:51:10.057Z,337.77
2022-10-11T14:56:21.313Z,337.83
2022-10-11T15:01:24.510Z,337.72
2022-10-11T15:06:31.699Z,337.51
2022-10-11T15:11:38.957Z,337.60
2022-10-11T15:16:46.153Z,337.93
2022-10-11T15:21:53.383Z,337.63
2022-10-11T15:27:00.564Z,337.13
2022-10-11T15:32:07.798Z,337.76
2022-10-11T15:37:15.139Z,337.67
2022-10-11T15:42:22.283Z,337.86
2022-10-11T15:47:29.452Z,337.81
2022-10-11T15:52:36.711Z,338.06
2022-10-11T15:57:43.887Z,337.62
2022-10-11T16:02:51.130Z,337.44
2022-10-11T16:07:58.345Z,337.60
2022-10-11T16:13:05.500Z,337.51
2022-10-11T16:18:12.713Z,337.47
2022-10-11T16:23:19.957Z,337.61
2022-10-11T16:28:27.170Z,337.24
2022-10-11T16:33:34.327Z,337.22
2022-10-11T16:38:41.566Z,337.23
2022-10-11T16:43:48.745Z,336.78
2022-10-11T16:48:55.916Z,336.49
2022-10-11T16:54:03.102Z,335.71
2022-10-11T16:59:10.309Z,335.47
2022-10-11T17:04:17.487Z,334.82
2022-10-11T17:09:24.683Z,335.20
2022-10-11T17:14:31.865Z,334.87
2022-10-11T17:19:44.044Z,334.49
2022-10-11T17:24:46.306Z,334.69
2022-10-11T17:29:53.523Z,334.46
2022-10-11T17:35:00.722Z,335.03
2022-10-11T17:40:08.215Z,334.73
2022-10-11T17:45:15.573Z,334.33
2022-10-11T17:50:23.113Z,334.00
2022-10-11T17:55:30.565Z,333.48
2022-10-11T18:00:37.781Z,333.48
2022-10-11T18:05:44.995Z,334.11
2022-10-11T18:10:52.278Z,333.88
2022-10-11T18:15:59.751Z,334.05
2022-10-11T18:21:07.140Z,333.68
2022-10-11T18:26:14.433Z,333.56
2022-10-11T18:31:21.607Z,333.31
2022-10-11T18:36:29.080Z,333.35
2022-10-11T18:41:36.479Z,333.14
2022-10-11T18:46:44.001Z,332.91
2022-10-11T18:51:51.719Z,332.60
2022-10-11T18:56:59.081Z,332.37
2022-10-11T19:02:06.233Z,332.34
2022-10-11T19:07:13.741Z,332.86
2022-10-11T19:12:21.083Z,332.75
2022-10-11T19:17:28.458Z,333.03
2022-10-11T19:22:35.789Z,332.69
2022-10-11T19:27:43.004Z,333.25
2022-10-11T19:32:50.198Z,333.49
2022-10-11T19:37:57.687Z,332.95
2022-10-11T19:43:05.105Z,333.10
2022-10-11T19:48:12.268Z,333.34
2022-10-11T19:53:19.812Z,333.10
2022-10-11T19:58:27.282Z,332.93
2022-10-11T20:03:34.734Z,332.85
2022-10-11T20:08:42.353Z,332.64
2022-10-11T20:13:49.675Z,332.54
2022-10-11T20:18:56.827Z,332.44
2022-10-11T20:24:03.986Z,332.17
2022-10-11T20:29:12.307Z,331.69
2022-10-11T20:34:19.509Z,331.45
2022-10-11T20:39:26.647Z,331.03
2022-10-11T20:44:33.856Z,330.91
2022-10-11T20:49:41.052Z,330.94
2022-10-11T20:54:48.631Z,330.72
2022-10-11T20:59:55.844Z,330.93
2022-10-11T21:05:03.042Z,331.62
2022-10-11T21:10:10.274Z,331.02
2022-10-11T21:15:17.557Z,330.71
2022-10-11T21:20:24.767Z,330.69
2022-10-11T21:25:31.966Z,331.19
2022-10-11T21:30:39.179Z,331.49
2022-10-11T21:35:46.368Z,331.23
2022-10-11T21:40:53.579Z,330.95
2022-10-11T21:46:00.759Z,331.44
2022-10-11T21:51:07.951Z,331.84
2022-10-11T21:56:15.082Z,331.87
2022-10-11T22:01:22.367Z,331.71
2022-10-11T22:06:29.509Z,332.36
2022-10-11T22:11:36.857Z,332.37
2022-10-11T22:16:44.123Z,332.41
2022-10-11T22:21:51.264Z,332.80
2022-10-11T22:26:58.444Z,332.75
2022-10-11T22:32:05.652Z,332.88
2022-10-11T22:37:12.842Z,332.63
2022-10-11T22:42:23.065Z,332.52
2022-10-11T22:47:27.270Z,332.49
2022-10-11T22:52:34.437Z,332.51
2022-10-11T22:57:41.654Z,332.08
2022-10-11T23:02:48.907Z,331.95
2022-10-11T23:07:56.028Z,332.34
2022-10-11T23:13:03.258Z,331.80
2022-10-11T23:18:10.487Z,331.67
2022-10-11T23:23:17.772Z,331.86
2022-10-11T23:28:25.002Z,331.97
2022-10-11T23:33:32.175Z,331.64
2022-10-11T23:38:39.331Z,331.26
2022-10-11T23:43:46.954Z,331.39
2022-10-11T23:48:54.204Z,331.42
2022-10-11T23:54:01.382Z,331.59
2022-10-11T23:59:08.609Z,330.89
